Time;durP1;ratioP1;P1;durP2;ratioP2;P2;SDS_P1;SDS_P2;PMS_P1;PMS_P2;Temp;Humidity;BMP_temperature;BMP_pressure;BME280_temperature;BME280_humidity;BME280_pressure;Samples;Min_cycle;Max_cycle;Signal;HPM_P1;HPM_P2
2024/04/10 00:01:31;;;;;;;0.15;0.10;;;;;;;;;;5450816;26;20019;-78
2024/04/10 00:03:57;;;;;;;0.20;0.20;;;;;;;;;;5444462;26;20000;-77
2024/04/10 00:06:23;;;;;;;0.68;0.17;;;;;;;;;;5430959;26;20414;-77
2024/04/10 00:08:49;;;;;;;1.73;0.20;;;;;;;;;;5446462;26;19995;-78
2024/04/10 00:11:21;;;;;;;1.27;0.17;;;;;;;;;;5457279;26;20006;-77
2024/04/10 00:13:47;;;;;;;0.50;0.15;;;;;;;;;;5456087;26;20345;-78
2024/04/10 00:16:13;;;;;;;0.93;0.20;;;;;;;;;;5456714;26;20026;-77
2024/04/10 00:18:39;;;;;;;0.88;0.17;;;;;;;;;;5452261;26;20008;-78
2024/04/10 00:21:05;;;;;;;0.05;0.05;;;;;;;;;;5432441;26;20030;-77
2024/04/10 00:23:31;;;;;;;0.20;0.03;;;;;;;;;;5459792;26;20007;-78
2024/04/10 00:26:02;;;;;;;0.73;0.17;;;;;;;;;;5454316;26;19999;-78
2024/04/10 00:28:29;;;;;;;0.22;0.13;;;;;;;;;;5431601;26;20002;-78
2024/04/10 00:30:55;;;;;;;0.10;0.10;;;;;;;;;;5438301;26;20073;-78
2024/04/10 00:33:21;;;;;;;0.10;0.10;;;;;;;;;;5434950;26;20014;-77
2024/04/10 00:35:57;;;;;;;0.20;0.20;;;;;;;;;;5437517;26;19994;-80
2024/04/10 00:38:23;;;;;;;0.17;0.17;;;;;;;;;;5441544;26;20003;-80
2024/04/10 00:40:57;;;;;;;0.20;0.20;;;;;;;;;;5430530;26;20004;-79
2024/04/10 00:43:23;;;;;;;0.10;0.10;;;;;;;;;;5437375;26;20468;-78
2024/04/10 00:45:58;;;;;;;0.77;0.20;;;;;;;;;;5430156;26;20008;-79
2024/04/10 00:48:25;;;;;;;2.15;0.10;;;;;;;;;;5439107;26;20015;-78
2024/04/10 00:50:52;;;;;;;0.45;0.10;;;;;;;;;;5421716;26;20011;-76
2024/04/10 00:53:18;;;;;;;1.38;0.55;;;;;;;;;;5441754;26;20014;-78
2024/04/10 00:55:44;;;;;;;0.57;0.10;;;;;;;;;;5422309;26;19992;-78
2024/04/10 00:58:11;;;;;;;0.57;0.22;;;;;;;;;;5400499;26;19996;-79
2024/04/10 01:00:38;;;;;;;0.20;0.20;;;;;;;;;;5425685;26;20029;-77
2024/04/10 01:03:05;;;;;;;0.88;0.20;;;;;;;;;;5468943;26;20006;-78
2024/04/10 01:05:32;;;;;;;0.45;0.20;;;;;;;;;;5429870;26;19995;-77
2024/04/10 01:07:58;;;;;;;0.52;0.30;;;;;;;;;;5431146;26;20079;-77
2024/04/10 01:10:24;;;;;;;0.45;0.20;;;;;;;;;;5439149;26;19996;-77
2024/04/10 01:12:50;;;;;;;0.43;0.32;;;;;;;;;;5445629;26;20013;-77
2024/04/10 01:15:17;;;;;;;1.05;0.22;;;;;;;;;;5440397;26;19998;-78
2024/04/10 01:17:43;;;;;;;0.73;0.25;;;;;;;;;;5435040;26;20028;-78
2024/04/10 01:20:09;;;;;;;0.57;0.22;;;;;;;;;;5422908;26;20052;-76
2024/04/10 01:22:36;;;;;;;0.20;0.20;;;;;;;;;;5436449;26;20003;-77
2024/04/10 01:25:03;;;;;;;0.55;0.32;;;;;;;;;;5421410;26;20330;-77
2024/04/10 01:27:30;;;;;;;0.35;0.30;;;;;;;;;;5423095;26;20502;-77
2024/04/10 01:29:56;;;;;;;0.80;0.30;;;;;;;;;;5449619;26;19999;-77
2024/04/10 01:32:22;;;;;;;0.40;0.30;;;;;;;;;;5421967;26;20010;-77
2024/04/10 01:34:48;;;;;;;0.25;0.25;;;;;;;;;;5426587;26;19999;-77
2024/04/10 01:37:14;;;;;;;0.43;0.25;;;;;;;;;;5433968;26;20096;-77
2024/04/10 01:39:40;;;;;;;1.00;0.25;;;;;;;;;;5434170;26;20045;-77
2024/04/10 01:42:06;;;;;;;1.10;0.30;;;;;;;;;;5422320;26;20006;-77
2024/04/10 01:44:32;;;;;;;0.47;0.30;;;;;;;;;;5419945;26;20460;-77
2024/04/10 01:46:59;;;;;;;0.40;0.20;;;;;;;;;;5425489;26;20000;-77
2024/04/10 01:49:25;;;;;;;2.03;0.35;;;;;;;;;;5418955;26;20072;-77
2024/04/10 01:51:51;;;;;;;0.45;0.15;;;;;;;;;;5429348;26;20409;-78
2024/04/10 01:54:17;;;;;;;0.43;0.20;;;;;;;;;;5434546;26;19999;-78
2024/04/10 01:56:43;;;;;;;2.00;0.22;;;;;;;;;;5425858;26;20427;-78
2024/04/10 01:59:09;;;;;;;0.98;0.22;;;;;;;;;;5413105;26;20050;-77
2024/04/10 02:01:37;;;;;;;0.20;0.20;;;;;;;;;;5419700;26;19996;-76
2024/04/10 02:04:03;;;;;;;1.13;0.20;;;;;;;;;;5434751;26;20026;-76
2024/04/10 02:06:29;;;;;;;0.40;0.20;;;;;;;;;;5427999;26;19999;-77
2024/04/10 02:08:55;;;;;;;0.68;0.30;;;;;;;;;;5429653;26;20000;-78
2024/04/10 02:11:28;;;;;;;0.20;0.20;;;;;;;;;;5413959;26;20334;-78
2024/04/10 02:13:54;;;;;;;0.77;0.30;;;;;;;;;;5384629;26;19993;-77
2024/04/10 02:16:23;;;;;;;2.10;0.35;;;;;;;;;;5382689;26;20004;-78
2024/04/10 02:18:49;;;;;;;2.67;0.50;;;;;;;;;;5383008;26;19999;-77
2024/04/10 02:21:17;;;;;;;0.35;0.20;;;;;;;;;;5382097;26;20000;-77
2024/04/10 02:23:43;;;;;;;0.20;0.20;;;;;;;;;;5402269;26;20050;-77
2024/04/10 02:26:12;;;;;;;0.60;0.30;;;;;;;;;;5418259;26;20496;-77
2024/04/10 02:28:38;;;;;;;0.20;0.20;;;;;;;;;;5421604;26;20007;-77
2024/04/10 02:31:05;;;;;;;0.55;0.25;;;;;;;;;;5398874;26;19996;-77
2024/04/10 02:33:35;;;;;;;0.70;0.20;;;;;;;;;;5418039;26;19996;-77
2024/04/10 02:36:01;;;;;;;1.30;0.10;;;;;;;;;;5408604;26;20024;-77
2024/04/10 02:38:31;;;;;;;1.20;0.30;;;;;;;;;;5382361;26;19996;-77
2024/04/10 02:40:57;;;;;;;0.28;0.20;;;;;;;;;;5382792;26;20399;-77
2024/04/10 02:43:23;;;;;;;3.13;0.40;;;;;;;;;;5401893;26;20000;-77
2024/04/10 02:45:56;;;;;;;0.82;0.22;;;;;;;;;;5383160;26;20000;-77
2024/04/10 02:48:22;;;;;;;0.52;0.28;;;;;;;;;;5398778;26;20041;-78
2024/04/10 02:50:48;;;;;;;0.75;0.40;;;;;;;;;;5419367;26;20014;-78
2024/04/10 02:53:15;;;;;;;0.82;0.50;;;;;;;;;;5417144;26;19995;-77
2024/04/10 02:55:44;;;;;;;0.30;0.28;;;;;;;;;;5406918;26;20025;-76
2024/04/10 02:58:14;;;;;;;1.08;0.20;;;;;;;;;;5402819;26;20051;-77
2024/04/10 03:00:47;;;;;;;1.08;0.47;;;;;;;;;;5398882;26;20000;-77
2024/04/10 03:03:13;;;;;;;1.33;0.30;;;;;;;;;;5403975;26;20015;-76
2024/04/10 03:05:46;;;;;;;1.83;0.40;;;;;;;;;;5416185;26;20386;-77
2024/04/10 03:08:12;;;;;;;1.30;0.32;;;;;;;;;;5392236;26;20007;-77
2024/04/10 03:10:39;;;;;;;0.13;0.10;;;;;;;;;;5400787;26;20416;-76
2024/04/10 03:13:07;;;;;;;0.85;0.30;;;;;;;;;;5398266;26;20014;-77
2024/04/10 03:15:33;;;;;;;3.00;0.43;;;;;;;;;;5386562;26;20078;-77
2024/04/10 03:17:59;;;;;;;1.25;0.40;;;;;;;;;;5397248;26;20387;-77
2024/04/10 03:20:26;;;;;;;0.98;0.30;;;;;;;;;;5399325;26;20015;-78
2024/04/10 03:22:52;;;;;;;0.52;0.30;;;;;;;;;;5388929;26;20007;-78
2024/04/10 03:25:18;;;;;;;0.25;0.13;;;;;;;;;;5403375;26;20026;-78
2024/04/10 03:27:44;;;;;;;1.00;0.17;;;;;;;;;;5396809;26;19996;-78
2024/04/10 03:30:11;;;;;;;0.60;0.35;;;;;;;;;;5389600;26;20020;-78
2024/04/10 03:32:40;;;;;;;0.85;0.20;;;;;;;;;;5399021;26;19995;-78
2024/04/10 03:35:06;;;;;;;0.40;0.20;;;;;;;;;;5413197;26;20006;-76
2024/04/10 03:37:33;;;;;;;0.65;0.20;;;;;;;;;;5414960;26;20005;-78
2024/04/10 03:39:59;;;;;;;0.55;0.10;;;;;;;;;;5388996;26;20006;-78
2024/04/10 03:42:25;;;;;;;0.88;0.20;;;;;;;;;;5390739;26;19996;-77
2024/04/10 03:44:51;;;;;;;0.20;0.10;;;;;;;;;;5392691;26;20000;-77
2024/04/10 03:47:17;;;;;;;0.20;0.20;;;;;;;;;;5404339;26;20000;-77
2024/04/10 03:49:43;;;;;;;0.10;0.10;;;;;;;;;;5409276;26;20410;-77
2024/04/10 03:52:09;;;;;;;0.75;0.20;;;;;;;;;;5382330;26;20458;-77
2024/04/10 03:54:35;;;;;;;0.20;0.10;;;;;;;;;;5398204;26;20263;-77
2024/04/10 03:57:02;;;;;;;0.38;0.30;;;;;;;;;;5395068;26;20001;-78
2024/04/10 03:59:28;;;;;;;0.73;0.20;;;;;;;;;;5396600;26;20011;-77
2024/04/10 04:01:56;;;;;;;0.63;0.30;;;;;;;;;;5382343;26;20451;-77
2024/04/10 04:04:22;;;;;;;1.90;0.30;;;;;;;;;;5404128;26;20011;-77
2024/04/10 04:06:48;;;;;;;0.30;0.20;;;;;;;;;;5405540;26;20028;-78
2024/04/10 04:09:14;;;;;;;1.10;0.63;;;;;;;;;;5393172;26;20008;-77
2024/04/10 04:11:40;;;;;;;2.85;0.30;;;;;;;;;;5419646;26;20025;-78
2024/04/10 04:14:07;;;;;;;1.45;0.30;;;;;;;;;;5420775;26;20062;-76
2024/04/10 04:16:36;;;;;;;0.35;0.30;;;;;;;;;;5403295;26;20000;-78
2024/04/10 04:19:02;;;;;;;0.10;0.10;;;;;;;;;;5409064;26;20349;-77
2024/04/10 04:21:31;;;;;;;0.73;0.20;;;;;;;;;;5389817;26;20008;-77
2024/04/10 04:23:58;;;;;;;1.15;0.20;;;;;;;;;;5409754;26;20004;-78
2024/04/10 04:26:24;;;;;;;0.13;0.13;;;;;;;;;;5410071;26;20010;-77
2024/04/10 04:28:51;;;;;;;0.75;0.20;;;;;;;;;;5433001;26;20111;-77
2024/04/10 04:31:17;;;;;;;0.20;0.20;;;;;;;;;;5412656;26;20038;-77
2024/04/10 04:33:44;;;;;;;0.73;0.20;;;;;;;;;;5405634;26;20414;-79
2024/04/10 04:36:10;;;;;;;0.95;0.30;;;;;;;;;;5422256;26;20003;-78
2024/04/10 04:38:36;;;;;;;2.08;0.35;;;;;;;;;;5395717;26;20000;-78
2024/04/10 04:41:03;;;;;;;0.98;0.20;;;;;;;;;;5404498;26;20007;-79
2024/04/10 04:43:29;;;;;;;0.20;0.20;;;;;;;;;;5407591;26;19996;-78
2024/04/10 04:45:55;;;;;;;0.57;0.20;;;;;;;;;;5418880;26;20011;-78
2024/04/10 04:48:47;;;;;;;0.20;0.20;;;;;;;;;;5389342;26;20030;-78
2024/04/10 04:51:16;;;;;;;0.28;0.20;;;;;;;;;;5388118;26;20069;-78
2024/04/10 04:53:42;;;;;;;0.63;0.22;;;;;;;;;;5405306;26;20052;-79
2024/04/10 04:56:08;;;;;;;0.20;0.20;;;;;;;;;;5413288;26;19995;-77
2024/04/10 04:58:34;;;;;;;0.20;0.20;;;;;;;;;;5431570;26;20002;-77
2024/04/10 05:01:00;;;;;;;0.40;0.30;;;;;;;;;;5441691;26;19995;-77
2024/04/10 05:06:12;;;;;;;0.57;0.30;;;;;;;;;;5409426;26;20078;-79
2024/04/10 05:08:38;;;;;;;1.45;0.38;;;;;;;;;;5428077;26;20008;-78
2024/04/10 05:11:08;;;;;;;0.57;0.10;;;;;;;;;;5436307;26;20003;-79
2024/04/10 05:13:35;;;;;;;0.28;0.20;;;;;;;;;;5423553;26;20032;-82
2024/04/10 05:16:01;;;;;;;0.43;0.30;;;;;;;;;;5431770;26;20030;-80
2024/04/10 05:18:29;;;;;;;0.50;0.20;;;;;;;;;;5440586;26;19995;-79
2024/04/10 05:20:55;;;;;;;4.57;0.52;;;;;;;;;;5418355;26;20003;-78
2024/04/10 05:23:21;;;;;;;0.85;0.50;;;;;;;;;;5407038;26;20004;-80
2024/04/10 05:25:49;;;;;;;1.40;0.40;;;;;;;;;;5403982;26;19995;-78
2024/04/10 05:28:15;;;;;;;0.43;0.32;;;;;;;;;;5409763;26;20023;-77
2024/04/10 05:30:41;;;;;;;0.52;0.20;;;;;;;;;;5401116;26;20008;-80
2024/04/10 05:33:07;;;;;;;1.35;0.47;;;;;;;;;;5413510;26;20304;-79
2024/04/10 05:35:33;;;;;;;0.52;0.25;;;;;;;;;;5420705;26;20302;-78
2024/04/10 05:38:00;;;;;;;0.80;0.28;;;;;;;;;;5406946;26;20014;-78
2024/04/10 05:40:26;;;;;;;0.20;0.20;;;;;;;;;;5420186;26;20003;-79
2024/04/10 05:42:54;;;;;;;1.27;0.63;;;;;;;;;;5449791;26;20425;-80
2024/04/10 05:45:20;;;;;;;0.65;0.25;;;;;;;;;;5423605;26;20010;-82
2024/04/10 05:47:50;;;;;;;0.50;0.22;;;;;;;;;;5423797;26;20003;-80
2024/04/10 05:50:16;;;;;;;0.38;0.20;;;;;;;;;;5421260;26;19996;-80
2024/04/10 05:52:43;;;;;;;0.63;0.13;;;;;;;;;;5409206;26;20008;-79
2024/04/10 05:55:10;;;;;;;0.30;0.30;;;;;;;;;;5403960;26;20000;-78
2024/04/10 05:57:36;;;;;;;1.25;0.57;;;;;;;;;;5415269;26;20003;-81
2024/04/10 06:00:03;;;;;;;0.80;0.52;;;;;;;;;;5433737;26;20015;-80
2024/04/10 06:02:30;;;;;;;1.58;0.45;;;;;;;;;;5395341;26;20050;-79
2024/04/10 06:05:00;;;;;;;1.55;0.52;;;;;;;;;;5409384;26;20442;-81
2024/04/10 06:07:26;;;;;;;0.57;0.15;;;;;;;;;;5402630;26;20015;-79
2024/04/10 06:09:53;;;;;;;0.63;0.32;;;;;;;;;;5408108;26;19995;-80
2024/04/10 06:12:19;;;;;;;1.35;0.63;;;;;;;;;;5406406;26;20239;-80
2024/04/10 06:14:45;;;;;;;0.30;0.30;;;;;;;;;;5403469;26;20525;-79
2024/04/10 06:17:11;;;;;;;0.30;0.10;;;;;;;;;;5402262;26;20019;-81
2024/04/10 06:19:40;;;;;;;0.50;0.30;;;;;;;;;;5403719;26;20069;-79
2024/04/10 06:22:06;;;;;;;0.20;0.20;;;;;;;;;;5388715;26;20323;-79
2024/04/10 06:24:32;;;;;;;0.95;0.30;;;;;;;;;;5404867;26;20015;-81
2024/04/10 06:27:02;;;;;;;0.77;0.45;;;;;;;;;;5402126;26;20011;-78
2024/04/10 06:29:28;;;;;;;1.02;0.30;;;;;;;;;;5424762;26;20063;-78
2024/04/10 06:31:54;;;;;;;0.98;0.40;;;;;;;;;;5390865;26;19996;-79
2024/04/10 06:34:20;;;;;;;1.17;0.30;;;;;;;;;;5418131;26;20030;-79
2024/04/10 06:36:46;;;;;;;3.22;0.63;;;;;;;;;;5418979;26;20022;-79
2024/04/10 06:39:12;;;;;;;1.83;0.50;;;;;;;;;;5416467;26;19995;-77
2024/04/10 06:41:39;;;;;;;2.58;0.60;;;;;;;;;;5404638;26;20008;-78
2024/04/10 06:44:05;;;;;;;2.60;0.43;;;;;;;;;;5411450;26;20050;-79
2024/04/10 06:46:32;;;;;;;2.72;0.70;;;;;;;;;;5397162;26;20015;-76
2024/04/10 06:48:58;;;;;;;1.30;0.57;;;;;;;;;;5398229;26;20000;-76
2024/04/10 06:51:24;;;;;;;1.17;0.50;;;;;;;;;;5397641;26;20364;-77
2024/04/10 06:53:50;;;;;;;0.98;0.55;;;;;;;;;;5409789;26;20070;-77
2024/04/10 06:56:17;;;;;;;0.88;0.57;;;;;;;;;;5395408;26;20045;-78
2024/04/10 06:58:43;;;;;;;1.38;0.50;;;;;;;;;;5392453;26;19992;-77
2024/04/10 07:01:10;;;;;;;0.65;0.40;;;;;;;;;;5399533;26;19997;-77
2024/04/10 07:03:37;;;;;;;0.50;0.30;;;;;;;;;;5415572;26;19992;-76
2024/04/10 07:06:06;;;;;;;0.68;0.32;;;;;;;;;;5399948;26;20000;-76
2024/04/10 07:08:33;;;;;;;0.47;0.22;;;;;;;;;;5387286;26;20011;-77
2024/04/10 07:11:00;;;;;;;0.60;0.40;;;;;;;;;;5398662;26;20469;-77
2024/04/10 07:13:26;;;;;;;2.30;0.50;;;;;;;;;;5391250;26;20008;-76
2024/04/10 07:16:02;;;;;;;2.15;0.60;;;;;;;;;;5404274;26;20019;-76
2024/04/10 07:18:32;;;;;;;3.45;0.80;;;;;;;;;;5406418;26;20010;-78
2024/04/10 07:21:02;;;;;;;1.60;0.75;;;;;;;;;;5388422;26;20080;-77
2024/04/10 07:23:28;;;;;;;2.42;0.90;;;;;;;;;;5400090;26;20004;-77
2024/04/10 07:25:54;;;;;;;3.00;0.90;;;;;;;;;;5406807;26;19996;-76
2024/04/10 07:28:20;;;;;;;0.50;0.50;;;;;;;;;;5407416;26;20044;-77
2024/04/10 07:30:52;;;;;;;1.15;0.90;;;;;;;;;;5412138;26;19996;-78
2024/04/10 07:33:20;;;;;;;1.92;0.93;;;;;;;;;;5408782;26;20000;-78
2024/04/10 07:35:46;;;;;;;3.05;0.90;;;;;;;;;;5392449;26;20008;-76
2024/04/10 07:38:12;;;;;;;1.10;0.77;;;;;;;;;;5401922;26;20004;-77
2024/04/10 07:40:38;;;;;;;0.50;0.43;;;;;;;;;;5396001;26;19992;-77
2024/04/10 07:43:04;;;;;;;0.30;0.30;;;;;;;;;;5399100;26;20001;-78
2024/04/10 07:45:31;;;;;;;0.55;0.30;;;;;;;;;;5390159;26;20008;-77
2024/04/10 07:48:00;;;;;;;0.85;0.60;;;;;;;;;;5411972;26;20011;-77
2024/04/10 07:50:26;;;;;;;4.55;1.10;;;;;;;;;;5401183;26;20004;-77
2024/04/10 07:52:52;;;;;;;1.33;0.57;;;;;;;;;;5428630;21;19999;-78
2024/04/10 07:55:18;;;;;;;2.33;0.80;;;;;;;;;;5433497;26;19996;-78
2024/04/10 07:57:44;;;;;;;2.58;1.13;;;;;;;;;;5438708;26;19996;-78
2024/04/10 08:00:11;;;;;;;3.20;0.90;;;;;;;;;;5438473;26;20014;-78
2024/04/10 08:02:37;;;;;;;1.98;0.90;;;;;;;;;;5432317;26;19996;-79
2024/04/10 08:05:04;;;;;;;1.50;0.80;;;;;;;;;;5417037;26;19992;-78
2024/04/10 08:07:30;;;;;;;5.50;1.20;;;;;;;;;;5424048;26;20003;-78
2024/04/10 08:09:56;;;;;;;5.32;1.10;;;;;;;;;;5456191;26;19991;-77
2024/04/10 08:12:22;;;;;;;3.15;1.10;;;;;;;;;;5434525;26;20023;-78
2024/04/10 08:14:51;;;;;;;3.33;0.90;;;;;;;;;;5439781;26;20075;-78
2024/04/10 08:17:17;;;;;;;3.15;0.95;;;;;;;;;;5439175;26;20007;-78
2024/04/10 08:19:46;;;;;;;1.75;0.60;;;;;;;;;;5437857;26;20003;-78
2024/04/10 08:22:12;;;;;;;2.45;1.30;;;;;;;;;;5427057;26;20011;-78
2024/04/10 08:24:38;;;;;;;4.72;1.30;;;;;;;;;;5409352;26;19996;-77
2024/04/10 08:27:05;;;;;;;2.28;1.20;;;;;;;;;;5453880;26;20018;-78
2024/04/10 08:29:32;;;;;;;1.30;1.20;;;;;;;;;;5421580;26;20030;-78
2024/04/10 08:31:59;;;;;;;2.60;1.27;;;;;;;;;;5408673;26;19996;-78
2024/04/10 08:34:25;;;;;;;2.80;1.40;;;;;;;;;;5451722;26;20471;-78
2024/04/10 08:36:52;;;;;;;2.63;1.45;;;;;;;;;;5418836;26;20046;-79
2024/04/10 08:39:18;;;;;;;2.97;1.00;;;;;;;;;;5448137;26;19995;-78
2024/04/10 08:41:45;;;;;;;1.92;1.05;;;;;;;;;;5449609;26;20014;-78
2024/04/10 08:44:11;;;;;;;1.33;1.00;;;;;;;;;;5419550;26;20092;-79
2024/04/10 08:46:38;;;;;;;1.50;0.90;;;;;;;;;;5391219;26;20000;-77
2024/04/10 08:49:05;;;;;;;0.70;0.70;;;;;;;;;;5394876;26;20465;-77
2024/04/10 08:51:33;;;;;;;0.70;0.70;;;;;;;;;;5418789;26;19996;-78
2024/04/10 08:53:59;;;;;;;1.92;1.00;;;;;;;;;;5418956;26;19995;-77
2024/04/10 08:56:25;;;;;;;4.75;1.45;;;;;;;;;;5392506;26;20011;-78
2024/04/10 08:58:55;;;;;;;4.63;1.20;;;;;;;;;;5384964;26;20316;-78
2024/04/10 09:01:27;;;;;;;2.58;0.95;;;;;;;;;;5397296;26;19995;-78
2024/04/10 09:03:55;;;;;;;0.88;0.82;;;;;;;;;;5416906;26;20003;-78
2024/04/10 09:06:21;;;;;;;2.47;1.40;;;;;;;;;;5409846;26;20003;-76
2024/04/10 09:09:23;;;;;;;3.00;0.88;;;;;;;;;;5409193;26;20008;-77
2024/04/10 09:11:52;;;;;;;3.35;1.20;;;;;;;;;;5438214;26;19995;-77
2024/04/10 09:14:18;;;;;;;3.35;0.80;;;;;;;;;;5429259;26;19992;-77
2024/04/10 09:16:44;;;;;;;1.23;0.70;;;;;;;;;;5407267;26;19998;-77
2024/04/10 09:19:11;;;;;;;1.75;0.50;;;;;;;;;;5469975;26;20038;-77
2024/04/10 09:21:38;;;;;;;0.52;0.50;;;;;;;;;;5425457;26;19988;-77
2024/04/10 09:24:04;;;;;;;0.95;0.40;;;;;;;;;;5440087;26;19988;-78
2024/04/10 09:26:30;;;;;;;1.33;0.80;;;;;;;;;;5440545;26;20041;-79
2024/04/10 09:29:07;;;;;;;1.63;0.75;;;;;;;;;;5434713;26;20041;-77
2024/04/10 09:31:34;;;;;;;2.45;0.85;;;;;;;;;;5418982;26;20004;-77
2024/04/10 09:34:00;;;;;;;1.48;0.63;;;;;;;;;;5469690;26;19988;-77
2024/04/10 09:36:34;;;;;;;1.40;0.65;;;;;;;;;;5440030;26;19992;-77
2024/04/10 09:39:00;;;;;;;2.15;0.80;;;;;;;;;;5411667;26;19995;-77
2024/04/10 09:41:28;;;;;;;0.88;0.63;;;;;;;;;;5439591;26;19991;-76
2024/04/10 09:44:04;;;;;;;0.80;0.60;;;;;;;;;;5469466;26;20032;-76
2024/04/10 09:46:40;;;;;;;0.95;0.65;;;;;;;;;;5417678;26;20018;-79
2024/04/10 09:49:11;;;;;;;2.00;0.60;;;;;;;;;;5400767;26;20004;-77
2024/04/10 09:51:41;;;;;;;1.05;0.73;;;;;;;;;;5394915;26;20007;-76
2024/04/10 09:54:23;;;;;;;2.55;0.88;;;;;;;;;;5401469;26;19992;-77
2024/04/10 09:56:49;;;;;;;1.35;0.52;;;;;;;;;;5406091;26;20002;-82
2024/04/10 10:02:27;;;;;;;2.28;0.88;;;;;;;;;;5401098;26;20449;-77
2024/04/10 10:04:53;;;;;;;1.33;0.73;;;;;;;;;;5409801;26;20011;-77
2024/04/10 10:07:22;;;;;;;0.52;0.40;;;;;;;;;;5418192;26;20004;-77
2024/04/10 10:09:50;;;;;;;0.88;0.45;;;;;;;;;;5401358;26;20003;-76
2024/04/10 10:12:28;;;;;;;0.57;0.30;;;;;;;;;;5446168;26;20037;-75
2024/04/10 10:14:54;;;;;;;0.60;0.60;;;;;;;;;;5416887;26;20007;-76
2024/04/10 10:17:27;;;;;;;0.77;0.40;;;;;;;;;;5405750;26;20019;-76
2024/04/10 10:19:53;;;;;;;;;;;;;;;;;;5401015;26;20007;-77
2024/04/10 10:22:19;;;;;;;3.35;1.23;;;;;;;;;;5418025;26;20003;-77
2024/04/10 10:24:55;;;;;;;5.05;1.25;;;;;;;;;;5417592;26;20031;-77
2024/04/10 10:27:24;;;;;;;2.40;1.00;;;;;;;;;;5408313;26;20011;-76
2024/04/10 10:29:50;;;;;;;1.70;0.55;;;;;;;;;;5421390;26;20003;-76
2024/04/10 10:32:20;;;;;;;0.60;0.55;;;;;;;;;;5423024;26;20080;-76
2024/04/10 10:34:46;;;;;;;0.70;0.50;;;;;;;;;;5419489;26;20081;-76
2024/04/10 10:37:12;;;;;;;2.70;0.85;;;;;;;;;;5402441;26;20050;-76
2024/04/10 10:39:42;;;;;;;3.25;0.82;;;;;;;;;;5424811;26;20006;-76
2024/04/10 10:42:08;;;;;;;1.35;0.50;;;;;;;;;;5427665;26;20027;-76
2024/04/10 10:44:34;;;;;;;0.45;0.40;;;;;;;;;;5457855;26;20000;-75
2024/04/10 10:47:07;;;;;;;1.70;0.45;;;;;;;;;;5416345;26;20045;-76
2024/04/10 10:49:32;;;;;;;;;;;;;;;;;;5426906;26;20011;-76
2024/04/10 10:51:59;;;;;;;2.30;0.80;;;;;;;;;;5421071;26;19936;-76
2024/04/10 10:54:25;;;;;;;2.20;0.82;;;;;;;;;;5418003;26;19995;-76
2024/04/10 10:56:51;;;;;;;2.22;0.90;;;;;;;;;;5416378;26;19996;-76
2024/04/10 10:59:17;;;;;;;0.57;0.52;;;;;;;;;;5406518;26;20005;-77
2024/04/10 11:01:43;;;;;;;1.83;0.82;;;;;;;;;;5383593;26;20000;-76
2024/04/10 11:04:10;;;;;;;2.33;1.10;;;;;;;;;;5444327;26;20338;-76
2024/04/10 11:06:37;;;;;;;2.38;0.85;;;;;;;;;;5399678;26;20003;-76
2024/04/10 11:09:15;;;;;;;0.70;0.60;;;;;;;;;;5415889;26;20020;-76
2024/04/10 11:11:42;;;;;;;0.70;0.57;;;;;;;;;;5442437;26;20098;-78
2024/04/10 11:14:21;;;;;;;0.80;0.38;;;;;;;;;;5395436;26;20012;-76
2024/04/10 11:16:48;;;;;;;0.70;0.47;;;;;;;;;;5399225;26;20131;-76
2024/04/10 11:19:14;;;;;;;0.80;0.43;;;;;;;;;;5401563;26;19999;-76
2024/04/10 11:21:40;;;;;;;0.52;0.35;;;;;;;;;;5402352;26;20001;-77
2024/04/10 11:24:06;;;;;;;1.05;0.45;;;;;;;;;;5416535;26;20012;-77
2024/04/10 11:26:32;;;;;;;1.95;0.50;;;;;;;;;;5392460;26;20001;-76
2024/04/10 11:29:00;;;;;;;2.03;0.60;;;;;;;;;;5418378;26;19995;-76
2024/04/10 11:31:26;;;;;;;3.58;0.77;;;;;;;;;;5422619;26;19996;-76
2024/04/10 11:33:52;;;;;;;2.10;0.88;;;;;;;;;;5417428;26;20008;-76
2024/04/10 11:36:18;;;;;;;1.40;0.70;;;;;;;;;;5399272;26;20025;-77
2024/04/10 11:38:44;;;;;;;0.82;0.50;;;;;;;;;;5401869;26;20015;-77
2024/04/10 11:41:12;;;;;;;1.25;0.73;;;;;;;;;;5408264;26;20019;-76
2024/04/10 11:43:38;;;;;;;0.73;0.40;;;;;;;;;;5410034;26;20419;-76
2024/04/10 11:46:05;;;;;;;0.77;0.30;;;;;;;;;;5378474;26;20483;-76
2024/04/10 11:48:31;;;;;;;0.40;0.40;;;;;;;;;;5403196;26;20006;-76
2024/04/10 11:50:57;;;;;;;1.48;0.50;;;;;;;;;;5403456;26;20053;-76
2024/04/10 11:53:24;;;;;;;0.63;0.30;;;;;;;;;;5415523;26;20041;-76
2024/04/10 11:55:53;;;;;;;1.58;0.80;;;;;;;;;;5385064;26;20004;-77
2024/04/10 11:58:19;;;;;;;1.05;0.47;;;;;;;;;;5406702;26;20372;-77
2024/04/10 12:00:45;;;;;;;0.98;0.60;;;;;;;;;;5399959;26;19996;-76
2024/04/10 12:03:12;;;;;;;1.75;0.68;;;;;;;;;;5443970;26;20024;-77
2024/04/10 12:05:38;;;;;;;1.33;0.98;;;;;;;;;;5415532;26;19999;-76
2024/04/10 12:08:04;;;;;;;2.90;1.50;;;;;;;;;;5386562;26;19999;-76
2024/04/10 12:10:32;;;;;;;2.78;1.30;;;;;;;;;;5415633;26;20000;-76
2024/04/10 12:12:58;;;;;;;1.48;0.80;;;;;;;;;;5408890;26;20097;-76
2024/04/10 12:15:25;;;;;;;3.13;0.95;;;;;;;;;;5379495;26;20003;-76
2024/04/10 12:17:52;;;;;;;1.52;0.57;;;;;;;;;;5398394;26;20000;-77
2024/04/10 12:20:18;;;;;;;2.25;0.65;;;;;;;;;;5414317;26;20028;-77
2024/04/10 12:22:47;;;;;;;1.63;0.77;;;;;;;;;;5385242;26;20105;-77
2024/04/10 12:25:14;;;;;;;2.10;0.70;;;;;;;;;;5411146;26;20026;-77
2024/04/10 12:27:40;;;;;;;0.60;0.45;;;;;;;;;;5421663;26;20079;-76
2024/04/10 12:30:06;;;;;;;0.75;0.50;;;;;;;;;;5421908;26;20408;-76
2024/04/10 12:32:32;;;;;;;0.93;0.60;;;;;;;;;;5447730;26;20002;-77
2024/04/10 12:38:02;;;;;;;1.73;0.80;;;;;;;;;;5404257;26;20011;-77
2024/04/10 12:38:03;;;;;;;0.65;0.50;;;;;;;;;;5418416;26;20034;-77
2024/04/10 12:40:29;;;;;;;1.25;0.60;;;;;;;;;;5405638;26;20028;-77
2024/04/10 12:42:55;;;;;;;1.25;0.40;;;;;;;;;;5410352;26;20002;-77
2024/04/10 12:45:23;;;;;;;3.53;0.77;;;;;;;;;;5380965;26;20003;-77
2024/04/10 12:47:49;;;;;;;1.90;0.68;;;;;;;;;;5380983;26;20013;-77
2024/04/10 12:50:15;;;;;;;1.85;0.82;;;;;;;;;;5407770;26;19999;-76
2024/04/10 12:52:41;;;;;;;0.90;0.57;;;;;;;;;;5403793;26;20317;-76
2024/04/10 12:55:08;;;;;;;2.85;0.82;;;;;;;;;;5417876;26;19995;-77
2024/04/10 12:57:37;;;;;;;2.40;0.98;;;;;;;;;;5418186;26;20043;-76
2024/04/10 13:00:04;;;;;;;0.90;0.50;;;;;;;;;;5417339;26;20007;-77
2024/04/10 13:02:30;;;;;;;1.15;0.60;;;;;;;;;;5404060;26;20340;-77
2024/04/10 13:04:57;;;;;;;2.05;0.80;;;;;;;;;;5412706;26;20011;-77
2024/04/10 13:07:23;;;;;;;0.57;0.38;;;;;;;;;;5416122;26;20004;-77
2024/04/10 13:09:50;;;;;;;1.10;0.52;;;;;;;;;;5403421;26;20032;-76
2024/04/10 13:12:16;;;;;;;2.55;0.70;;;;;;;;;;5410258;26;20070;-77
2024/04/10 13:14:43;;;;;;;0.90;0.52;;;;;;;;;;5398713;26;19992;-76
2024/04/10 13:17:09;;;;;;;1.67;0.85;;;;;;;;;;5405949;26;20007;-77
2024/04/10 13:19:35;;;;;;;1.25;0.60;;;;;;;;;;5425519;26;20003;-77
2024/04/10 13:22:04;;;;;;;0.77;0.57;;;;;;;;;;5400954;26;20597;-77
2024/04/10 13:24:31;;;;;;;1.00;0.35;;;;;;;;;;5383344;26;20000;-76
2024/04/10 13:27:03;;;;;;;0.38;0.38;;;;;;;;;;5410659;26;20002;-76
2024/04/10 13:29:29;;;;;;;;;;;;;;;;;;5423194;26;20011;-78
2024/04/10 13:31:55;;;;;;;2.85;0.82;;;;;;;;;;5400072;26;19933;-78
2024/04/10 13:34:22;;;;;;;0.43;0.28;;;;;;;;;;5406679;26;20011;-78
2024/04/10 13:36:48;;;;;;;0.55;0.40;;;;;;;;;;5416764;26;20012;-78
2024/04/10 13:39:14;;;;;;;0.80;0.47;;;;;;;;;;5381445;26;20000;-78
2024/04/10 13:41:41;;;;;;;2.08;0.88;;;;;;;;;;5398649;26;20000;-78
2024/04/10 13:44:07;;;;;;;1.08;0.70;;;;;;;;;;5414517;26;20027;-79
2024/04/10 13:46:36;;;;;;;1.10;0.80;;;;;;;;;;5402400;26;20004;-76
2024/04/10 13:49:02;;;;;;;0.88;0.50;;;;;;;;;;5447276;26;20073;-77
2024/04/10 13:51:29;;;;;;;0.40;0.40;;;;;;;;;;5418996;26;20000;-77
2024/04/10 13:53:55;;;;;;;0.40;0.25;;;;;;;;;;5446321;26;20007;-77
2024/04/10 13:56:21;;;;;;;0.57;0.22;;;;;;;;;;5418512;26;20346;-78
2024/04/10 13:58:48;;;;;;;0.32;0.30;;;;;;;;;;5417340;26;20000;-78
2024/04/10 14:01:19;;;;;;;1.60;1.02;;;;;;;;;;5391862;26;19995;-77
2024/04/10 14:03:49;;;;;;;1.65;0.47;;;;;;;;;;5415693;26;20007;-77
2024/04/10 14:06:15;;;;;;;1.30;0.65;;;;;;;;;;5402869;26;19999;-77
2024/04/10 14:08:43;;;;;;;0.77;0.55;;;;;;;;;;5418866;26;20011;-77
2024/04/10 14:11:10;;;;;;;0.90;0.60;;;;;;;;;;5419380;26;19999;-77
2024/04/10 14:13:37;;;;;;;0.73;0.55;;;;;;;;;;5419699;26;20007;-77
2024/04/10 14:16:03;;;;;;;1.88;0.65;;;;;;;;;;5404241;26;19995;-78
2024/04/10 14:18:30;;;;;;;1.77;0.40;;;;;;;;;;5405621;26;19999;-77
2024/04/10 14:20:59;;;;;;;0.65;0.32;;;;;;;;;;5422247;26;20400;-78
2024/04/10 14:23:26;;;;;;;2.40;0.80;;;;;;;;;;5408250;26;20042;-78
2024/04/10 14:25:53;;;;;;;2.50;1.00;;;;;;;;;;5413958;26;19996;-77
2024/04/10 14:28:20;;;;;;;2.67;0.90;;;;;;;;;;5446612;26;20003;-78
2024/04/10 14:31:06;;;;;;;2.05;0.90;;;;;;;;;;5417791;26;19999;-77
2024/04/10 14:33:33;;;;;;;2.33;0.75;;;;;;;;;;5409776;26;19996;-78
2024/04/10 14:36:00;;;;;;;1.98;0.90;;;;;;;;;;5398828;26;20000;-77
2024/04/10 14:38:27;;;;;;;1.35;0.60;;;;;;;;;;5406353;26;19996;-76
2024/04/10 14:40:53;;;;;;;1.92;0.95;;;;;;;;;;5383103;26;20072;-78
2024/04/10 14:43:19;;;;;;;1.30;0.85;;;;;;;;;;5383695;26;20011;-78
2024/04/10 14:45:46;;;;;;;1.65;0.68;;;;;;;;;;5450256;26;19984;-77
2024/04/10 14:48:12;;;;;;;1.45;0.60;;;;;;;;;;5436620;26;19991;-76
2024/04/10 14:50:38;;;;;;;3.05;1.15;;;;;;;;;;5418717;26;19996;-78